sensor_id;sensor_type;location;lat;lon;timestamp;P1;durP1;ratioP1;P2;durP2;ratioP2
34541;SDS011;20784;51.332;12.410;2023-05-21T00:01:12;29.83;;;22.67;;
34541;SDS011;20784;51.332;12.410;2023-05-21T00:03:40;31.52;;;21.95;;
34541;SDS011;20784;51.332;12.410;2023-05-21T00:06:10;32.95;;;22.95;;
34541;SDS011;20784;51.332;12.410;2023-05-21T00:08:40;28.65;;;21.65;;
34541;SDS011;20784;51.332;12.410;2023-05-21T00:11:08;28.45;;;22.65;;
34541;SDS011;20784;51.332;12.410;2023-05-21T00:13:34;32.65;;;21.88;;
34541;SDS011;20784;51.332;12.410;2023-05-21T00:16:02;26.92;;;21.42;;
34541;SDS011;20784;51.332;12.410;2023-05-21T00:18:28;28.38;;;22.27;;
34541;SDS011;20784;51.332;12.410;2023-05-21T00:20:56;32.90;;;23.75;;
34541;SDS011;20784;51.332;12.410;2023-05-21T00:23:21;26.13;;;20.63;;
34541;SDS011;20784;51.332;12.410;2023-05-21T00:25:47;29.77;;;22.83;;
34541;SDS011;20784;51.332;12.410;2023-05-21T00:28:16;31.63;;;23.20;;
34541;SDS011;20784;51.332;12.410;2023-05-21T00:30:49;31.98;;;22.00;;
34541;SDS011;20784;51.332;12.410;2023-05-21T00:33:15;29.65;;;23.38;;
34541;SDS011;20784;51.332;12.410;2023-05-21T00:35:41;36.33;;;24.63;;
34541;SDS011;20784;51.332;12.410;2023-05-21T00:38:06;30.35;;;23.20;;
34541;SDS011;20784;51.332;12.410;2023-05-21T00:40:37;35.00;;;23.63;;
34541;SDS011;20784;51.332;12.410;2023-05-21T00:43:08;34.65;;;24.55;;
34541;SDS011;20784;51.332;12.410;2023-05-21T00:45:34;35.38;;;23.92;;
34541;SDS011;20784;51.332;12.410;2023-05-21T00:48:01;31.40;;;22.67;;
34541;SDS011;20784;51.332;12.410;2023-05-21T00:50:28;32.53;;;23.42;;
34541;SDS011;20784;51.332;12.410;2023-05-21T00:52:54;37.25;;;24.42;;
34541;SDS011;20784;51.332;12.410;2023-05-21T00:55:26;32.55;;;24.63;;
34541;SDS011;20784;51.332;12.410;2023-05-21T00:57:54;32.40;;;24.30;;
34541;SDS011;20784;51.332;12.410;2023-05-21T01:00:20;33.75;;;23.30;;
34541;SDS011;20784;51.332;12.410;2023-05-21T01:02:50;39.65;;;24.40;;
34541;SDS011;20784;51.332;12.410;2023-05-21T01:05:19;31.85;;;25.40;;
34541;SDS011;20784;51.332;12.410;2023-05-21T01:07:45;36.28;;;25.27;;
34541;SDS011;20784;51.332;12.410;2023-05-21T01:10:12;34.88;;;24.40;;
34541;SDS011;20784;51.332;12.410;2023-05-21T01:12:38;33.88;;;24.23;;
34541;SDS011;20784;51.332;12.410;2023-05-21T01:15:05;36.90;;;24.80;;
34541;SDS011;20784;51.332;12.410;2023-05-21T01:17:32;33.50;;;23.38;;
34541;SDS011;20784;51.332;12.410;2023-05-21T01:19:58;35.28;;;24.77;;
34541;SDS011;20784;51.332;12.410;2023-05-21T01:22:25;37.25;;;23.13;;
34541;SDS011;20784;51.332;12.410;2023-05-21T01:24:56;33.97;;;24.35;;
34541;SDS011;20784;51.332;12.410;2023-05-21T01:27:21;35.40;;;25.75;;
34541;SDS011;20784;51.332;12.410;2023-05-21T01:29:50;34.33;;;24.08;;
34541;SDS011;20784;51.332;12.410;2023-05-21T01:32:22;38.40;;;25.33;;
34541;SDS011;20784;51.332;12.410;2023-05-21T01:35:42;33.53;;;25.02;;
34541;SDS011;20784;51.332;12.410;2023-05-21T01:38:17;34.67;;;24.92;;
34541;SDS011;20784;51.332;12.410;2023-05-21T01:40:52;34.88;;;24.98;;
34541;SDS011;20784;51.332;12.410;2023-05-21T01:43:28;35.05;;;25.50;;
34541;SDS011;20784;51.332;12.410;2023-05-21T01:45:58;33.93;;;24.60;;
34541;SDS011;20784;51.332;12.410;2023-05-21T01:48:27;38.75;;;25.10;;
34541;SDS011;20784;51.332;12.410;2023-05-21T01:50:54;33.88;;;24.77;;
34541;SDS011;20784;51.332;12.410;2023-05-21T01:53:22;35.75;;;24.65;;
34541;SDS011;20784;51.332;12.410;2023-05-21T01:58:49;35.65;;;24.88;;
34541;SDS011;20784;51.332;12.410;2023-05-21T02:01:15;35.65;;;25.48;;
34541;SDS011;20784;51.332;12.410;2023-05-21T02:03:41;36.92;;;25.20;;
34541;SDS011;20784;51.332;12.410;2023-05-21T02:06:06;32.90;;;24.25;;
34541;SDS011;20784;51.332;12.410;2023-05-21T02:08:32;35.80;;;25.17;;
34541;SDS011;20784;51.332;12.410;2023-05-21T02:10:57;35.90;;;25.02;;
34541;SDS011;20784;51.332;12.410;2023-05-21T02:13:23;33.95;;;25.05;;
34541;SDS011;20784;51.332;12.410;2023-05-21T02:15:49;35.08;;;24.55;;
34541;SDS011;20784;51.332;12.410;2023-05-21T02:18:15;31.45;;;24.45;;
34541;SDS011;20784;51.332;12.410;2023-05-21T02:20:42;33.22;;;24.45;;
34541;SDS011;20784;51.332;12.410;2023-05-21T02:23:08;34.00;;;24.20;;
34541;SDS011;20784;51.332;12.410;2023-05-21T02:25:33;33.38;;;24.77;;
34541;SDS011;20784;51.332;12.410;2023-05-21T02:28:01;35.17;;;25.15;;
34541;SDS011;20784;51.332;12.410;2023-05-21T02:30:27;34.35;;;24.02;;
34541;SDS011;20784;51.332;12.410;2023-05-21T02:32:54;36.03;;;25.45;;
34541;SDS011;20784;51.332;12.410;2023-05-21T02:35:19;34.03;;;25.60;;
34541;SDS011;20784;51.332;12.410;2023-05-21T02:37:45;32.60;;;24.83;;
34541;SDS011;20784;51.332;12.410;2023-05-21T02:40:11;33.30;;;24.75;;
34541;SDS011;20784;51.332;12.410;2023-05-21T02:42:37;34.88;;;26.25;;
34541;SDS011;20784;51.332;12.410;2023-05-21T02:45:06;36.83;;;25.63;;
34541;SDS011;20784;51.332;12.410;2023-05-21T02:47:32;34.33;;;26.50;;
34541;SDS011;20784;51.332;12.410;2023-05-21T02:49:58;35.20;;;25.42;;
34541;SDS011;20784;51.332;12.410;2023-05-21T02:52:24;35.60;;;25.10;;
34541;SDS011;20784;51.332;12.410;2023-05-21T02:54:53;34.20;;;25.33;;
34541;SDS011;20784;51.332;12.410;2023-05-21T02:57:18;37.40;;;26.77;;
34541;SDS011;20784;51.332;12.410;2023-05-21T02:59:44;36.72;;;26.50;;
34541;SDS011;20784;51.332;12.410;2023-05-21T03:02:10;34.95;;;25.13;;
34541;SDS011;20784;51.332;12.410;2023-05-21T03:04:35;35.63;;;25.25;;
34541;SDS011;20784;51.332;12.410;2023-05-21T03:07:03;33.88;;;23.80;;
34541;SDS011;20784;51.332;12.410;2023-05-21T03:09:29;35.33;;;25.17;;
34541;SDS011;20784;51.332;12.410;2023-05-21T03:11:55;38.28;;;26.25;;
34541;SDS011;20784;51.332;12.410;2023-05-21T03:14:21;35.08;;;26.17;;
34541;SDS011;20784;51.332;12.410;2023-05-21T03:16:48;33.38;;;25.67;;
34541;SDS011;20784;51.332;12.410;2023-05-21T03:19:15;36.72;;;26.73;;
34541;SDS011;20784;51.332;12.410;2023-05-21T03:21:41;37.05;;;26.73;;
34541;SDS011;20784;51.332;12.410;2023-05-21T03:24:09;34.53;;;26.65;;
34541;SDS011;20784;51.332;12.410;2023-05-21T03:26:37;33.78;;;26.73;;
34541;SDS011;20784;51.332;12.410;2023-05-21T03:29:03;36.17;;;26.15;;
34541;SDS011;20784;51.332;12.410;2023-05-21T03:31:28;37.78;;;25.45;;
34541;SDS011;20784;51.332;12.410;2023-05-21T03:33:54;36.05;;;25.60;;
34541;SDS011;20784;51.332;12.410;2023-05-21T03:36:19;38.25;;;25.40;;
34541;SDS011;20784;51.332;12.410;2023-05-21T03:38:45;35.33;;;25.25;;
34541;SDS011;20784;51.332;12.410;2023-05-21T03:41:11;41.83;;;28.17;;
34541;SDS011;20784;51.332;12.410;2023-05-21T03:43:36;37.72;;;26.33;;
34541;SDS011;20784;51.332;12.410;2023-05-21T03:46:02;36.95;;;26.90;;
34541;SDS011;20784;51.332;12.410;2023-05-21T03:48:28;34.00;;;24.85;;
34541;SDS011;20784;51.332;12.410;2023-05-21T03:50:53;37.60;;;26.88;;
34541;SDS011;20784;51.332;12.410;2023-05-21T03:53:19;35.35;;;25.75;;
34541;SDS011;20784;51.332;12.410;2023-05-21T03:55:45;38.20;;;26.92;;
34541;SDS011;20784;51.332;12.410;2023-05-21T03:58:11;35.00;;;26.00;;
34541;SDS011;20784;51.332;12.410;2023-05-21T04:00:36;37.20;;;26.00;;
34541;SDS011;20784;51.332;12.410;2023-05-21T04:03:03;36.92;;;26.27;;
34541;SDS011;20784;51.332;12.410;2023-05-21T04:05:28;37.13;;;26.75;;
34541;SDS011;20784;51.332;12.410;2023-05-21T04:07:54;36.67;;;27.33;;
34541;SDS011;20784;51.332;12.410;2023-05-21T04:10:26;38.97;;;27.25;;
34541;SDS011;20784;51.332;12.410;2023-05-21T04:12:51;38.63;;;26.80;;
34541;SDS011;20784;51.332;12.410;2023-05-21T04:15:17;39.33;;;25.85;;
34541;SDS011;20784;51.332;12.410;2023-05-21T04:17:45;37.92;;;26.60;;
34541;SDS011;20784;51.332;12.410;2023-05-21T04:20:11;33.38;;;26.00;;
34541;SDS011;20784;51.332;12.410;2023-05-21T04:22:38;39.67;;;27.48;;
34541;SDS011;20784;51.332;12.410;2023-05-21T04:25:04;38.88;;;27.27;;
34541;SDS011;20784;51.332;12.410;2023-05-21T04:27:29;37.58;;;28.48;;
34541;SDS011;20784;51.332;12.410;2023-05-21T04:29:55;36.65;;;27.27;;
34541;SDS011;20784;51.332;12.410;2023-05-21T04:32:22;41.28;;;27.88;;
34541;SDS011;20784;51.332;12.410;2023-05-21T04:34:47;40.13;;;27.20;;
34541;SDS011;20784;51.332;12.410;2023-05-21T04:37:17;42.53;;;28.20;;
34541;SDS011;20784;51.332;12.410;2023-05-21T04:39:43;36.92;;;27.48;;
34541;SDS011;20784;51.332;12.410;2023-05-21T04:42:09;40.60;;;28.27;;
34541;SDS011;20784;51.332;12.410;2023-05-21T04:44:35;37.47;;;27.63;;
34541;SDS011;20784;51.332;12.410;2023-05-21T04:47:04;34.58;;;27.02;;
34541;SDS011;20784;51.332;12.410;2023-05-21T04:49:31;41.78;;;28.30;;
34541;SDS011;20784;51.332;12.410;2023-05-21T04:51:59;38.38;;;27.63;;
34541;SDS011;20784;51.332;12.410;2023-05-21T04:54:27;37.05;;;27.70;;
34541;SDS011;20784;51.332;12.410;2023-05-21T04:56:56;40.80;;;28.70;;
34541;SDS011;20784;51.332;12.410;2023-05-21T04:59:22;38.60;;;28.25;;
34541;SDS011;20784;51.332;12.410;2023-05-21T05:01:50;39.67;;;29.58;;
34541;SDS011;20784;51.332;12.410;2023-05-21T05:04:15;36.80;;;27.40;;
34541;SDS011;20784;51.332;12.410;2023-05-21T05:06:44;40.63;;;28.52;;
34541;SDS011;20784;51.332;12.410;2023-05-21T05:09:13;39.95;;;28.27;;
34541;SDS011;20784;51.332;12.410;2023-05-21T05:11:38;35.38;;;27.92;;
34541;SDS011;20784;51.332;12.410;2023-05-21T05:14:04;37.30;;;27.02;;
34541;SDS011;20784;51.332;12.410;2023-05-21T05:16:30;43.20;;;27.20;;
34541;SDS011;20784;51.332;12.410;2023-05-21T05:18:56;36.20;;;26.10;;
34541;SDS011;20784;51.332;12.410;2023-05-21T05:21:25;35.67;;;25.95;;
34541;SDS011;20784;51.332;12.410;2023-05-21T05:23:57;36.08;;;27.40;;
34541;SDS011;20784;51.332;12.410;2023-05-21T05:26:22;39.75;;;28.00;;
34541;SDS011;20784;51.332;12.410;2023-05-21T05:28:48;39.35;;;27.50;;
34541;SDS011;20784;51.332;12.410;2023-05-21T05:31:13;40.60;;;27.70;;
34541;SDS011;20784;51.332;12.410;2023-05-21T05:33:39;34.78;;;26.63;;
34541;SDS011;20784;51.332;12.410;2023-05-21T05:36:05;39.90;;;26.70;;
34541;SDS011;20784;51.332;12.410;2023-05-21T05:38:32;34.95;;;26.35;;
34541;SDS011;20784;51.332;12.410;2023-05-21T05:40:58;37.25;;;27.50;;
34541;SDS011;20784;51.332;12.410;2023-05-21T05:43:24;38.80;;;26.65;;
34541;SDS011;20784;51.332;12.410;2023-05-21T05:45:53;35.95;;;26.23;;
34541;SDS011;20784;51.332;12.410;2023-05-21T05:48:18;35.42;;;26.27;;
34541;SDS011;20784;51.332;12.410;2023-05-21T05:50:46;35.70;;;24.90;;
34541;SDS011;20784;51.332;12.410;2023-05-21T05:53:12;33.67;;;26.45;;
34541;SDS011;20784;51.332;12.410;2023-05-21T05:55:38;34.45;;;24.55;;
34541;SDS011;20784;51.332;12.410;2023-05-21T05:58:05;33.35;;;25.40;;
34541;SDS011;20784;51.332;12.410;2023-05-21T06:00:30;36.95;;;25.58;;
34541;SDS011;20784;51.332;12.410;2023-05-21T06:02:56;36.53;;;24.38;;
34541;SDS011;20784;51.332;12.410;2023-05-21T06:05:21;34.83;;;25.20;;
34541;SDS011;20784;51.332;12.410;2023-05-21T06:07:47;35.80;;;25.02;;
34541;SDS011;20784;51.332;12.410;2023-05-21T06:10:12;33.88;;;24.90;;
34541;SDS011;20784;51.332;12.410;2023-05-21T06:12:38;31.63;;;24.10;;
34541;SDS011;20784;51.332;12.410;2023-05-21T06:15:04;32.40;;;24.25;;
34541;SDS011;20784;51.332;12.410;2023-05-21T06:17:32;31.45;;;23.90;;
34541;SDS011;20784;51.332;12.410;2023-05-21T06:19:58;35.78;;;24.70;;
34541;SDS011;20784;51.332;12.410;2023-05-21T06:22:24;31.42;;;23.88;;
34541;SDS011;20784;51.332;12.410;2023-05-21T06:24:52;31.15;;;25.15;;
34541;SDS011;20784;51.332;12.410;2023-05-21T06:27:18;29.13;;;23.02;;
34541;SDS011;20784;51.332;12.410;2023-05-21T06:29:46;34.10;;;24.02;;
34541;SDS011;20784;51.332;12.410;2023-05-21T06:32:11;34.65;;;24.35;;
34541;SDS011;20784;51.332;12.410;2023-05-21T06:34:37;31.35;;;24.55;;
34541;SDS011;20784;51.332;12.410;2023-05-21T06:37:03;31.90;;;24.00;;
34541;SDS011;20784;51.332;12.410;2023-05-21T06:39:28;33.00;;;23.33;;
34541;SDS011;20784;51.332;12.410;2023-05-21T06:41:54;31.73;;;24.25;;
34541;SDS011;20784;51.332;12.410;2023-05-21T06:44:26;30.85;;;22.88;;
34541;SDS011;20784;51.332;12.410;2023-05-21T06:46:54;32.83;;;25.10;;
34541;SDS011;20784;51.332;12.410;2023-05-21T06:49:20;34.03;;;22.67;;
34541;SDS011;20784;51.332;12.410;2023-05-21T06:51:45;30.75;;;24.58;;
34541;SDS011;20784;51.332;12.410;2023-05-21T06:54:11;28.45;;;21.90;;
34541;SDS011;20784;51.332;12.410;2023-05-21T06:56:39;32.67;;;24.05;;
34541;SDS011;20784;51.332;12.410;2023-05-21T06:59:05;28.42;;;22.58;;
34541;SDS011;20784;51.332;12.410;2023-05-21T07:01:30;30.42;;;23.45;;
34541;SDS011;20784;51.332;12.410;2023-05-21T07:03:56;31.95;;;23.23;;
34541;SDS011;20784;51.332;12.410;2023-05-21T07:06:22;30.40;;;22.73;;
34541;SDS011;20784;51.332;12.410;2023-05-21T07:08:47;31.92;;;23.98;;
34541;SDS011;20784;51.332;12.410;2023-05-21T07:11:13;29.48;;;20.95;;
34541;SDS011;20784;51.332;12.410;2023-05-21T07:13:42;28.98;;;21.25;;
34541;SDS011;20784;51.332;12.410;2023-05-21T07:16:08;28.35;;;21.90;;
34541;SDS011;20784;51.332;12.410;2023-05-21T07:18:34;28.75;;;21.35;;
34541;SDS011;20784;51.332;12.410;2023-05-21T07:20:59;27.48;;;20.55;;
34541;SDS011;20784;51.332;12.410;2023-05-21T07:23:27;26.65;;;20.45;;
34541;SDS011;20784;51.332;12.410;2023-05-21T07:25:53;28.77;;;21.05;;
34541;SDS011;20784;51.332;12.410;2023-05-21T07:28:18;26.98;;;20.60;;
34541;SDS011;20784;51.332;12.410;2023-05-21T07:30:44;29.92;;;20.17;;
34541;SDS011;20784;51.332;12.410;2023-05-21T07:33:10;28.27;;;20.73;;
34541;SDS011;20784;51.332;12.410;2023-05-21T07:35:36;24.75;;;20.20;;
34541;SDS011;20784;51.332;12.410;2023-05-21T07:38:02;24.75;;;19.92;;
34541;SDS011;20784;51.332;12.410;2023-05-21T07:40:27;24.33;;;18.27;;
34541;SDS011;20784;51.332;12.410;2023-05-21T07:42:55;23.95;;;18.88;;
34541;SDS011;20784;51.332;12.410;2023-05-21T07:45:21;23.25;;;17.55;;
34541;SDS011;20784;51.332;12.410;2023-05-21T07:47:46;26.15;;;19.05;;
34541;SDS011;20784;51.332;12.410;2023-05-21T07:50:12;23.38;;;18.48;;
34541;SDS011;20784;51.332;12.410;2023-05-21T07:52:41;22.52;;;17.70;;
34541;SDS011;20784;51.332;12.410;2023-05-21T07:55:07;24.67;;;18.38;;
34541;SDS011;20784;51.332;12.410;2023-05-21T07:57:33;25.73;;;16.88;;
34541;SDS011;20784;51.332;12.410;2023-05-21T07:59:59;20.85;;;16.70;;
34541;SDS011;20784;51.332;12.410;2023-05-21T08:02:25;23.67;;;16.08;;
34541;SDS011;20784;51.332;12.410;2023-05-21T08:04:51;22.95;;;17.40;;
34541;SDS011;20784;51.332;12.410;2023-05-21T08:07:16;20.98;;;17.05;;
34541;SDS011;20784;51.332;12.410;2023-05-21T08:09:43;20.27;;;16.45;;
34541;SDS011;20784;51.332;12.410;2023-05-21T08:12:09;21.58;;;17.00;;
34541;SDS011;20784;51.332;12.410;2023-05-21T08:14:38;18.63;;;16.23;;
34541;SDS011;20784;51.332;12.410;2023-05-21T08:17:03;23.48;;;16.80;;
34541;SDS011;20784;51.332;12.410;2023-05-21T08:19:29;20.77;;;16.83;;
34541;SDS011;20784;51.332;12.410;2023-05-21T08:21:55;22.38;;;16.73;;
34541;SDS011;20784;51.332;12.410;2023-05-21T08:24:20;21.17;;;15.98;;
34541;SDS011;20784;51.332;12.410;2023-05-21T08:26:46;19.75;;;15.48;;
34541;SDS011;20784;51.332;12.410;2023-05-21T08:29:13;20.80;;;14.93;;
34541;SDS011;20784;51.332;12.410;2023-05-21T08:31:39;19.63;;;15.68;;
34541;SDS011;20784;51.332;12.410;2023-05-21T08:34:05;20.63;;;16.45;;
34541;SDS011;20784;51.332;12.410;2023-05-21T08:36:30;24.92;;;16.00;;
34541;SDS011;20784;51.332;12.410;2023-05-21T08:38:56;21.60;;;15.48;;
34541;SDS011;20784;51.332;12.410;2023-05-21T08:41:22;24.58;;;15.43;;
34541;SDS011;20784;51.332;12.410;2023-05-21T08:43:54;22.15;;;15.63;;
34541;SDS011;20784;51.332;12.410;2023-05-21T08:46:32;21.75;;;15.60;;
34541;SDS011;20784;51.332;12.410;2023-05-21T08:48:59;18.63;;;15.50;;
34541;SDS011;20784;51.332;12.410;2023-05-21T08:51:30;18.42;;;14.90;;
34541;SDS011;20784;51.332;12.410;2023-05-21T08:53:55;20.67;;;15.57;;
34541;SDS011;20784;51.332;12.410;2023-05-21T08:56:25;19.77;;;15.43;;
34541;SDS011;20784;51.332;12.410;2023-05-21T08:58:53;22.85;;;15.32;;
34541;SDS011;20784;51.332;12.410;2023-05-21T09:01:20;16.35;;;14.40;;
34541;SDS011;20784;51.332;12.410;2023-05-21T09:03:46;19.25;;;15.50;;
34541;SDS011;20784;51.332;12.410;2023-05-21T09:06:14;21.60;;;15.07;;
34541;SDS011;20784;51.332;12.410;2023-05-21T09:08:42;19.17;;;14.60;;
34541;SDS011;20784;51.332;12.410;2023-05-21T09:11:11;17.17;;;14.65;;
34541;SDS011;20784;51.332;12.410;2023-05-21T09:13:38;20.38;;;16.17;;
34541;SDS011;20784;51.332;12.410;2023-05-21T09:16:04;17.40;;;15.35;;
34541;SDS011;20784;51.332;12.410;2023-05-21T09:19:22;20.02;;;14.50;;
34541;SDS011;20784;51.332;12.410;2023-05-21T09:21:51;22.02;;;16.02;;
34541;SDS011;20784;51.332;12.410;2023-05-21T09:24:19;17.98;;;14.80;;
34541;SDS011;20784;51.332;12.410;2023-05-21T09:26:56;20.05;;;15.32;;
34541;SDS011;20784;51.332;12.410;2023-05-21T09:29:26;19.27;;;15.43;;
34541;SDS011;20784;51.332;12.410;2023-05-21T09:31:54;18.40;;;14.52;;
34541;SDS011;20784;51.332;12.410;2023-05-21T09:34:21;18.45;;;14.95;;
34541;SDS011;20784;51.332;12.410;2023-05-21T09:36:55;20.77;;;14.57;;
34541;SDS011;20784;51.332;12.410;2023-05-21T09:39:27;19.88;;;15.32;;
34541;SDS011;20784;51.332;12.410;2023-05-21T09:41:57;17.13;;;14.50;;
34541;SDS011;20784;51.332;12.410;2023-05-21T09:47:08;20.98;;;13.77;;
34541;SDS011;20784;51.332;12.410;2023-05-21T09:49:36;20.08;;;13.85;;
34541;SDS011;20784;51.332;12.410;2023-05-21T09:52:38;24.60;;;13.23;;
34541;SDS011;20784;51.332;12.410;2023-05-21T09:55:18;21.80;;;13.57;;
34541;SDS011;20784;51.332;12.410;2023-05-21T09:57:48;19.85;;;13.77;;
34541;SDS011;20784;51.332;12.410;2023-05-21T10:00:23;15.10;;;13.50;;
34541;SDS011;20784;51.332;12.410;2023-05-21T10:02:59;19.42;;;13.68;;
34541;SDS011;20784;51.332;12.410;2023-05-21T10:05:29;16.85;;;13.57;;
34541;SDS011;20784;51.332;12.410;2023-05-21T10:07:58;21.02;;;13.43;;
34541;SDS011;20784;51.332;12.410;2023-05-21T10:10:26;15.30;;;12.27;;
34541;SDS011;20784;51.332;12.410;2023-05-21T10:12:54;24.08;;;13.60;;
34541;SDS011;20784;51.332;12.410;2023-05-21T10:15:37;17.85;;;12.57;;
34541;SDS011;20784;51.332;12.410;2023-05-21T10:18:07;19.02;;;13.85;;
34541;SDS011;20784;51.332;12.410;2023-05-21T10:20:34;19.73;;;13.70;;
34541;SDS011;20784;51.332;12.410;2023-05-21T10:23:01;19.90;;;13.35;;
34541;SDS011;20784;51.332;12.410;2023-05-21T10:25:27;17.35;;;12.38;;
34541;SDS011;20784;51.332;12.410;2023-05-21T10:27:54;14.70;;;11.55;;
34541;SDS011;20784;51.332;12.410;2023-05-21T10:30:21;15.30;;;12.07;;
34541;SDS011;20784;51.332;12.410;2023-05-21T10:32:48;16.95;;;11.55;;
34541;SDS011;20784;51.332;12.410;2023-05-21T10:35:14;13.63;;;11.52;;
34541;SDS011;20784;51.332;12.410;2023-05-21T10:37:42;16.23;;;11.23;;
34541;SDS011;20784;51.332;12.410;2023-05-21T10:40:12;16.60;;;11.80;;
34541;SDS011;20784;51.332;12.410;2023-05-21T10:42:51;22.98;;;13.13;;
34541;SDS011;20784;51.332;12.410;2023-05-21T10:48:30;17.98;;;11.23;;
34541;SDS011;20784;51.332;12.410;2023-05-21T10:51:27;15.77;;;10.60;;
34541;SDS011;20784;51.332;12.410;2023-05-21T11:00:40;10.68;;;9.48;;
34541;SDS011;20784;51.332;12.410;2023-05-21T11:03:09;18.05;;;10.15;;
34541;SDS011;20784;51.332;12.410;2023-05-21T11:05:38;17.98;;;10.07;;
34541;SDS011;20784;51.332;12.410;2023-05-21T11:08:41;14.00;;;10.18;;
34541;SDS011;20784;51.332;12.410;2023-05-21T11:11:11;12.73;;;10.70;;
34541;SDS011;20784;51.332;12.410;2023-05-21T11:13:45;17.88;;;10.60;;
34541;SDS011;20784;51.332;12.410;2023-05-21T11:16:15;11.15;;;9.15;;
34541;SDS011;20784;51.332;12.410;2023-05-21T11:21:11;13.40;;;10.18;;
34541;SDS011;20784;51.332;12.410;2023-05-21T11:26:26;14.88;;;10.13;;
34541;SDS011;20784;51.332;12.410;2023-05-21T11:29:16;14.33;;;9.70;;
34541;SDS011;20784;51.332;12.410;2023-05-21T11:31:46;12.23;;;9.50;;
34541;SDS011;20784;51.332;12.410;2023-05-21T11:34:22;17.83;;;9.98;;
34541;SDS011;20784;51.332;12.410;2023-05-21T11:42:54;10.55;;;9.30;;
34541;SDS011;20784;51.332;12.410;2023-05-21T11:45:26;12.35;;;10.13;;
34541;SDS011;20784;51.332;12.410;2023-05-21T11:47:55;12.38;;;9.25;;
34541;SDS011;20784;51.332;12.410;2023-05-21T11:50:21;12.30;;;9.82;;
34541;SDS011;20784;51.332;12.410;2023-05-21T11:52:49;12.90;;;9.85;;
34541;SDS011;20784;51.332;12.410;2023-05-21T11:55:19;15.40;;;9.40;;
34541;SDS011;20784;51.332;12.410;2023-05-21T11:57:46;13.15;;;9.07;;
34541;SDS011;20784;51.332;12.410;2023-05-21T12:02:51;12.77;;;9.27;;
34541;SDS011;20784;51.332;12.410;2023-05-21T12:05:19;14.32;;;9.77;;
34541;SDS011;20784;51.332;12.410;2023-05-21T12:07:45;16.38;;;10.43;;
34541;SDS011;20784;51.332;12.410;2023-05-21T12:10:15;14.15;;;9.25;;
34541;SDS011;20784;51.332;12.410;2023-05-21T12:12:40;14.32;;;8.55;;
34541;SDS011;20784;51.332;12.410;2023-05-21T12:15:06;16.02;;;9.30;;
34541;SDS011;20784;51.332;12.410;2023-05-21T12:17:34;13.77;;;9.77;;
34541;SDS011;20784;51.332;12.410;2023-05-21T12:19:59;13.88;;;12.02;;
34541;SDS011;20784;51.332;12.410;2023-05-21T12:22:26;20.42;;;9.85;;
34541;SDS011;20784;51.332;12.410;2023-05-21T12:24:53;12.63;;;9.85;;
34541;SDS011;20784;51.332;12.410;2023-05-21T12:27:19;12.13;;;9.57;;
34541;SDS011;20784;51.332;12.410;2023-05-21T12:29:47;12.45;;;9.02;;
34541;SDS011;20784;51.332;12.410;2023-05-21T12:32:18;12.80;;;9.60;;
34541;SDS011;20784;51.332;12.410;2023-05-21T12:34:45;10.93;;;9.50;;
34541;SDS011;20784;51.332;12.410;2023-05-21T12:37:20;13.60;;;9.13;;
34541;SDS011;20784;51.332;12.410;2023-05-21T12:39:48;12.23;;;9.45;;
34541;SDS011;20784;51.332;12.410;2023-05-21T12:42:15;12.30;;;9.10;;
34541;SDS011;20784;51.332;12.410;2023-05-21T12:44:48;11.15;;;9.18;;
34541;SDS011;20784;51.332;12.410;2023-05-21T12:47:18;15.05;;;8.90;;
34541;SDS011;20784;51.332;12.410;2023-05-21T12:49:52;13.90;;;9.10;;
34541;SDS011;20784;51.332;12.410;2023-05-21T12:52:21;11.77;;;9.15;;
34541;SDS011;20784;51.332;12.410;2023-05-21T12:54:48;12.10;;;9.30;;
34541;SDS011;20784;51.332;12.410;2023-05-21T12:57:19;10.07;;;8.68;;
34541;SDS011;20784;51.332;12.410;2023-05-21T12:59:50;12.35;;;8.98;;
34541;SDS011;20784;51.332;12.410;2023-05-21T13:02:19;11.68;;;8.80;;
34541;SDS011;20784;51.332;12.410;2023-05-21T13:04:53;16.35;;;8.75;;
34541;SDS011;20784;51.332;12.410;2023-05-21T13:07:19;15.18;;;9.02;;
34541;SDS011;20784;51.332;12.410;2023-05-21T13:09:45;11.05;;;8.70;;
34541;SDS011;20784;51.332;12.410;2023-05-21T13:12:13;13.52;;;9.35;;
34541;SDS011;20784;51.332;12.410;2023-05-21T13:14:38;13.63;;;9.55;;
34541;SDS011;20784;51.332;12.410;2023-05-21T13:17:04;17.17;;;9.90;;
34541;SDS011;20784;51.332;12.410;2023-05-21T13:19:30;15.48;;;8.93;;
34541;SDS011;20784;51.332;12.410;2023-05-21T13:21:59;12.88;;;8.98;;
34541;SDS011;20784;51.332;12.410;2023-05-21T13:24:25;9.90;;;8.75;;
34541;SDS011;20784;51.332;12.410;2023-05-21T13:26:51;13.88;;;9.25;;
34541;SDS011;20784;51.332;12.410;2023-05-21T13:29:16;10.25;;;8.68;;
34541;SDS011;20784;51.332;12.410;2023-05-21T13:31:42;12.23;;;9.05;;
34541;SDS011;20784;51.332;12.410;2023-05-21T13:34:11;13.68;;;9.13;;
34541;SDS011;20784;51.332;12.410;2023-05-21T13:36:37;15.32;;;8.93;;
34541;SDS011;20784;51.332;12.410;2023-05-21T13:39:03;12.60;;;9.40;;
34541;SDS011;20784;51.332;12.410;2023-05-21T13:41:32;14.98;;;9.05;;
34541;SDS011;20784;51.332;12.410;2023-05-21T13:43:57;14.23;;;9.50;;
34541;SDS011;20784;51.332;12.410;2023-05-21T13:46:23;10.38;;;9.05;;
34541;SDS011;20784;51.332;12.410;2023-05-21T13:48:55;10.75;;;8.82;;
34541;SDS011;20784;51.332;12.410;2023-05-21T13:51:21;13.15;;;8.98;;
34541;SDS011;20784;51.332;12.410;2023-05-21T13:53:46;10.52;;;9.30;;
34541;SDS011;20784;51.332;12.410;2023-05-21T13:56:12;12.65;;;9.07;;
34541;SDS011;20784;51.332;12.410;2023-05-21T13:58:38;12.95;;;9.85;;
34541;SDS011;20784;51.332;12.410;2023-05-21T14:01:06;10.65;;;8.95;;
34541;SDS011;20784;51.332;12.410;2023-05-21T14:03:32;14.43;;;9.00;;
34541;SDS011;20784;51.332;12.410;2023-05-21T14:06:15;10.77;;;8.75;;
34541;SDS011;20784;51.332;12.410;2023-05-21T14:08:48;12.13;;;9.30;;
34541;SDS011;20784;51.332;12.410;2023-05-21T14:11:14;13.07;;;9.32;;
34541;SDS011;20784;51.332;12.410;2023-05-21T14:13:39;10.73;;;8.65;;
34541;SDS011;20784;51.332;12.410;2023-05-21T14:16:05;13.20;;;8.35;;
34541;SDS011;20784;51.332;12.410;2023-05-21T14:18:31;13.90;;;8.02;;
34541;SDS011;20784;51.332;12.410;2023-05-21T14:20:57;14.57;;;8.52;;
34541;SDS011;20784;51.332;12.410;2023-05-21T14:23:22;12.30;;;8.45;;
34541;SDS011;20784;51.332;12.410;2023-05-21T14:25:55;10.52;;;8.35;;
34541;SDS011;20784;51.332;12.410;2023-05-21T14:28:21;10.98;;;8.10;;
34541;SDS011;20784;51.332;12.410;2023-05-21T14:30:52;10.68;;;8.27;;
34541;SDS011;20784;51.332;12.410;2023-05-21T14:33:17;9.85;;;7.82;;
34541;SDS011;20784;51.332;12.410;2023-05-21T14:35:46;12.57;;;8.82;;
34541;SDS011;20784;51.332;12.410;2023-05-21T14:38:15;11.50;;;8.85;;
34541;SDS011;20784;51.332;12.410;2023-05-21T14:40:40;11.95;;;9.07;;
34541;SDS011;20784;51.332;12.410;2023-05-21T14:43:09;10.77;;;8.57;;
34541;SDS011;20784;51.332;12.410;2023-05-21T14:45:42;11.80;;;9.10;;